createdAt,value
2022-12-29T00:02:55.842Z,100074.31
2022-12-29T00:07:59.451Z,100073.38
2022-12-29T00:13:20.204Z,100071.22
2022-12-29T00:18:25.066Z,100071.03
2022-12-29T00:23:46.163Z,100072.41
2022-12-29T00:29:06.770Z,100076.22
2022-12-29T00:34:30.886Z,100070.38
2022-12-29T00:39:51.634Z,100060.06
2022-12-29T00:44:55.169Z,100057.50
2022-12-29T00:50:00.009Z,100052.09
2022-12-29T00:55:05.083Z,100052.34
2022-12-29T01:00:10.045Z,100027.53
2022-12-29T01:05:14.964Z,100036.41
2022-12-29T01:10:18.482Z,100025.25
2022-12-29T01:15:22.346Z,100001.59
2022-12-29T01:20:28.663Z,99989.72
2022-12-29T01:25:32.133Z,99998.34
2022-12-29T01:30:36.649Z,99987.47
2022-12-29T01:35:41.872Z,99977.06
2022-12-29T01:40:47.089Z,99980.91
2022-12-29T01:45:54.270Z,99986.59
2022-12-29T01:50:59.521Z,99982.72
2022-12-29T01:56:08.069Z,99974.00
2022-12-29T02:01:12.017Z,99976.25
2022-12-29T02:06:21.209Z,99971.72
2022-12-29T02:11:27.491Z,99964.41
2022-12-29T02:16:45.780Z,99966.00
2022-12-29T02:22:07.677Z,99955.13
2022-12-29T02:27:44.852Z,99947.38
2022-12-29T02:33:01.470Z,99946.28
2022-12-29T02:38:16.019Z,99941.34
2022-12-29T02:43:27.347Z,99946.47
2022-12-29T02:48:40.329Z,99933.88
2022-12-29T02:54:01.815Z,99938.28
2022-12-29T02:59:05.453Z,99936.38
2022-12-29T03:04:29.637Z,99937.19
2022-12-29T03:09:42.552Z,99945.38
2022-12-29T03:15:12.137Z,99951.41
2022-12-29T03:20:21.854Z,99958.16
2022-12-29T03:25:32.486Z,99962.44
2022-12-29T03:30:40.444Z,99953.44
2022-12-29T03:35:48.840Z,99937.81
2022-12-29T03:40:56.781Z,99958.97
2022-12-29T03:46:02.247Z,99957.38
2022-12-29T03:51:07.436Z,99947.38
2022-12-29T03:56:11.056Z,99946.28
2022-12-29T04:01:15.013Z,99943.72
2022-12-29T04:06:21.392Z,99946.28
2022-12-29T04:11:33.278Z,99950.88
2022-12-29T04:16:40.056Z,99950.66
2022-12-29T04:21:45.953Z,99961.97
2022-12-29T04:26:49.709Z,99962.16
2022-12-29T04:32:05.500Z,99964.81
2022-12-29T04:37:13.202Z,99967.47
2022-12-29T04:42:17.276Z,99965.38
2022-12-29T04:47:22.582Z,99971.72
2022-12-29T04:52:50.869Z,99970.03
2022-12-29T04:57:54.625Z,99974.00
2022-12-29T05:02:58.603Z,99967.38
2022-12-29T05:08:04.444Z,99973.06
2022-12-29T05:13:08.266Z,99972.66
2022-12-29T05:18:17.744Z,99971.84
2022-12-29T05:23:23.527Z,99973.47
2022-12-29T05:28:35.641Z,99981.41
2022-12-29T05:33:46.582Z,99975.38
2022-12-29T05:38:51.512Z,99974.16
2022-12-29T05:43:55.638Z,99967.47
2022-12-29T05:49:38.011Z,99970.06
2022-12-29T05:55:03.101Z,99960.63
2022-12-29T06:00:10.497Z,99956.81
2022-12-29T06:05:21.463Z,99954.63
2022-12-29T06:10:26.630Z,99965.03
2022-12-29T06:15:35.502Z,99970.69
2022-12-29T06:20:41.552Z,99965.66
2022-12-29T06:25:47.395Z,99965.78
2022-12-29T06:30:50.925Z,99951.28
2022-12-29T06:35:55.351Z,99958.25
2022-12-29T06:41:00.255Z,99955.84
2022-12-29T06:46:22.731Z,99970.13
2022-12-29T06:51:26.233Z,99965.66
2022-12-29T06:56:31.368Z,99962.28
2022-12-29T07:01:35.559Z,99947.38
2022-12-29T07:06:39.739Z,99941.81
2022-12-29T07:11:44.557Z,99957.59
2022-12-29T07:16:48.292Z,99962.91
2022-12-29T07:21:51.848Z,99958.91
2022-12-29T07:26:56.629Z,99964.50
2022-12-29T07:32:00.498Z,99966.00
2022-12-29T07:37:03.992Z,99971.59
2022-12-29T07:42:08.990Z,99982.41
2022-12-29T07:47:19.804Z,99988.03
2022-12-29T07:52:23.217Z,99983.31
2022-12-29T07:57:31.724Z,99986.34
2022-12-29T08:02:35.904Z,99988.50
2022-12-29T08:07:39.335Z,99985.53
2022-12-29T08:12:44.671Z,99985.41
2022-12-29T08:17:48.081Z,99990.13
2022-12-29T08:22:51.549Z,99987.16
2022-12-29T08:27:56.461Z,99977.38
2022-12-29T08:32:59.942Z,99980.34
2022-12-29T08:38:03.414Z,99985.47
2022-12-29T08:43:08.849Z,99972.09
2022-12-29T08:48:12.471Z,99977.41
2022-12-29T08:53:16.397Z,99965.53
2022-12-29T08:58:21.214Z,99960.91
2022-12-29T09:03:55.172Z,99960.44
2022-12-29T09:08:50.072Z,99943.22
2022-12-29T09:13:55.818Z,99942.66
2022-12-29T09:18:59.244Z,99946.59
2022-12-29T09:24:02.677Z,99931.81
2022-12-29T09:29:07.436Z,99932.28
2022-12-29T09:34:10.942Z,99925.44
2022-12-29T09:39:15.463Z,99918.13
2022-12-29T09:44:25.707Z,99917.31
2022-12-29T09:49:35.835Z,99904.59
2022-12-29T09:54:50.812Z,99892.38
2022-12-29T10:00:05.618Z,99885.56
2022-12-29T10:05:24.445Z,99880.72
2022-12-29T10:10:37.866Z,99873.72
2022-12-29T10:15:54.988Z,99868.50
2022-12-29T10:21:08.618Z,99854.63
2022-12-29T10:26:16.331Z,99850.38
2022-12-29T10:31:24.829Z,99848.63
2022-12-29T10:36:36.147Z,99853.88
2022-12-29T10:41:43.983Z,99853.88
2022-12-29T10:46:56.294Z,99848.59
2022-12-29T10:52:04.345Z,99852.16
2022-12-29T10:57:13.876Z,99848.59
2022-12-29T11:02:34.662Z,99845.03
2022-12-29T11:07:39.367Z,99849.38
2022-12-29T11:12:42.960Z,99846.75
2022-12-29T11:17:50.765Z,99837.91
2022-12-29T11:22:55.362Z,99828.31
2022-12-29T11:28:01.864Z,99831.81
2022-12-29T11:33:07.311Z,99822.94
2022-12-29T11:38:23.263Z,99809.81
2022-12-29T11:43:34.659Z,99813.75
2022-12-29T11:48:43.759Z,99807.88
2022-12-29T11:53:52.291Z,99808.22
2022-12-29T11:58:55.709Z,99802.97
2022-12-29T12:04:06.554Z,99792.72
2022-12-29T12:09:19.170Z,99797.97
2022-12-29T12:14:27.541Z,99799.72
2022-12-29T12:20:12.623Z,99792.72
2022-12-29T12:25:22.602Z,99786.63
2022-12-29T12:30:29.399Z,99783.13
2022-12-29T12:35:46.344Z,99772.56
2022-12-29T12:41:03.385Z,99775.38
2022-12-29T12:46:21.741Z,99771.88
2022-12-29T12:51:36.254Z,99775.34
2022-12-29T12:57:01.024Z,99771.88
2022-12-29T13:02:18.236Z,99767.50
2022-12-29T13:07:34.352Z,99763.09
2022-12-29T13:12:47.541Z,99763.16
2022-12-29T13:18:00.825Z,99775.38
2022-12-29T13:23:16.190Z,99766.63
2022-12-29T13:28:27.977Z,99775.38
2022-12-29T13:33:41.254Z,99769.22
2022-12-29T13:38:50.951Z,99777.84
2022-12-29T13:43:57.206Z,99779.56
2022-12-29T13:49:04.509Z,99777.81
2022-12-29T13:54:20.406Z,99762.88
2022-12-29T13:59:30.735Z,99767.19
2022-12-29T14:04:36.144Z,99773.25
2022-12-29T14:09:49.599Z,99781.78
2022-12-29T14:14:53.521Z,99773.94
2022-12-29T14:19:57.333Z,99786.84
2022-12-29T14:25:02.831Z,99770.19
2022-12-29T14:30:49.703Z,99774.22
2022-12-29T14:35:53.547Z,99777.38
2022-12-29T14:41:21.428Z,99783.88
2022-12-29T14:46:25.432Z,99779.13
2022-12-29T14:51:33.800Z,99795.16
2022-12-29T14:56:42.639Z,99800.88
2022-12-29T15:01:52.309Z,99798.94
2022-12-29T15:06:57.438Z,99785.47
2022-12-29T15:12:14.839Z,99795.50
2022-12-29T15:17:28.278Z,99790.03
2022-12-29T15:22:33.895Z,99792.63
2022-12-29T15:27:41.693Z,99793.78
2022-12-29T15:32:48.073Z,99788.47
2022-12-29T15:37:51.824Z,99787.34
2022-12-29T15:43:15.996Z,99799.16
2022-12-29T15:48:23.992Z,99796.38
2022-12-29T15:53:31.021Z,99790.84
2022-12-29T15:58:45.710Z,99788.41
2022-12-29T16:03:50.326Z,99797.63
2022-12-29T16:08:59.761Z,99805.00
2022-12-29T16:14:10.701Z,99799.41
2022-12-29T16:19:20.523Z,99796.19
2022-12-29T16:24:28.771Z,99795.88
2022-12-29T16:29:33.841Z,99788.22
2022-12-29T16:34:46.436Z,99795.44
2022-12-29T16:39:50.011Z,99797.22
2022-12-29T16:45:18.733Z,99803.59
2022-12-29T16:50:28.645Z,99796.47
2022-12-29T16:55:33.327Z,99799.53
2022-12-29T17:00:40.297Z,99803.72
2022-12-29T17:05:43.781Z,99797.34
2022-12-29T17:11:01.151Z,99803.44
2022-12-29T17:16:08.358Z,99804.59
2022-12-29T17:21:11.812Z,99804.72
2022-12-29T17:26:15.650Z,99803.53
2022-12-29T17:31:20.617Z,99791.25
2022-12-29T17:36:24.297Z,99794.84
2022-12-29T17:41:27.910Z,99803.03
2022-12-29T17:46:32.831Z,99790.84
2022-12-29T17:51:36.381Z,99791.91
2022-12-29T17:56:40.038Z,99793.28
2022-12-29T18:01:46.744Z,99794.25
2022-12-29T18:06:50.438Z,99777.66
2022-12-29T18:11:54.173Z,99784.72
2022-12-29T18:17:01.333Z,99791.53
2022-12-29T18:22:04.904Z,99781.81
2022-12-29T18:27:13.950Z,99773.03
2022-12-29T18:32:19.593Z,99781.63
2022-12-29T18:37:23.235Z,99789.84
2022-12-29T18:42:26.839Z,99775.38
2022-12-29T18:47:32.020Z,99785.69
2022-12-29T18:52:35.909Z,99773.72
2022-12-29T18:57:39.713Z,99765.75
2022-12-29T19:02:45.318Z,99765.84
2022-12-29T19:07:49.282Z,99771.16
2022-12-29T19:12:54.636Z,99766.00
2022-12-29T19:18:41.871Z,99764.16
2022-12-29T19:23:27.385Z,99763.88
2022-12-29T19:28:30.971Z,99766.28
2022-12-29T19:33:36.023Z,99756.69
2022-12-29T19:38:39.643Z,99755.00
2022-12-29T19:43:43.587Z,99758.78
2022-12-29T19:48:48.558Z,99755.06
2022-12-29T19:53:52.276Z,99749.81
2022-12-29T19:58:57.741Z,99747.31
2022-12-29T20:04:04.081Z,99741.03
2022-12-29T20:09:07.842Z,99751.19
2022-12-29T20:14:11.403Z,99746.66
2022-12-29T20:19:16.218Z,99734.53
2022-12-29T20:24:19.839Z,99737.44
2022-12-29T20:29:24.245Z,99735.22
2022-12-29T20:34:29.366Z,99736.97
2022-12-29T20:39:33.161Z,99728.34
2022-12-29T20:44:37.573Z,99733.22
2022-12-29T20:49:42.508Z,99738.59
2022-12-29T20:54:45.993Z,99740.19
2022-12-29T20:59:49.798Z,99736.56
2022-12-29T21:05:22.873Z,99739.81
2022-12-29T21:10:18.726Z,99740.16
2022-12-29T21:15:22.644Z,99739.00
2022-12-29T21:20:32.188Z,99739.91
2022-12-29T21:25:38.104Z,99739.81
2022-12-29T21:30:42.069Z,99740.03
2022-12-29T21:35:47.779Z,99737.66
2022-12-29T21:40:51.530Z,99721.44
2022-12-29T21:45:54.973Z,99711.88
2022-12-29T21:51:30.330Z,99705.84
2022-12-29T21:56:34.733Z,99711.88
2022-12-29T22:01:56.840Z,99703.09
2022-12-29T22:07:20.009Z,99710.41
2022-12-29T22:12:40.698Z,99710.50
2022-12-29T22:17:48.716Z,99704.00
2022-12-29T22:22:54.480Z,99707.19
2022-12-29T22:27:59.910Z,99701.00
2022-12-29T22:33:03.746Z,99700.34
2022-12-29T22:38:08.552Z,99701.59
2022-12-29T22:43:13.343Z,99701.66
2022-12-29T22:48:17.025Z,99703.13
2022-12-29T22:53:21.965Z,99694.72
2022-12-29T22:58:25.665Z,99686.28
2022-12-29T23:03:29.225Z,99687.47
2022-12-29T23:08:37.010Z,99686.91
2022-12-29T23:13:42.248Z,99683.69
2022-12-29T23:18:47.199Z,99689.28
2022-12-29T23:23:56.097Z,99687.47
2022-12-29T23:29:01.340Z,99683.81
2022-12-29T23:34:07.095Z,99680.53
2022-12-29T23:39:17.526Z,99676.47
2022-12-29T23:44:21.496Z,99687.31
2022-12-29T23:49:25.186Z,99684.28
2022-12-29T23:54:30.052Z,99687.94
2022-12-29T23:59:33.775Z,99690.38
